Time;durP1;ratioP1;P1;durP2;ratioP2;P2;SDS_P1;SDS_P2;PMS_P1;PMS_P2;Temp;Humidity;BMP_temperature;BMP_pressure;BME280_temperature;BME280_humidity;BME280_pressure;Samples;Min_cycle;Max_cycle;Signal;HPM_P1;HPM_P2
2022/06/18 00:00:48;;;;;;;7.30;4.80;;;;;;;14.78;84.68;99656.14;109176;1276;138493;-59
2022/06/18 00:03:15;;;;;;;9.10;5.00;;;;;;;14.80;84.60;99656.45;109303;1276;22479;-59
2022/06/18 00:05:42;;;;;;;5.70;5.00;;;;;;;14.79;84.48;99655.26;109304;1274;139520;-58
2022/06/18 00:08:19;;;;;;;6.90;5.10;;;;;;;14.77;84.38;99653.39;109200;1275;22230;-57
2022/06/18 00:10:46;;;;;;;10.30;5.00;;;;;;;14.77;84.32;99645.27;109196;1277;138334;-58
2022/06/18 00:16:20;;;;;;;7.90;5.40;;;;;;;14.81;84.58;99640.60;109393;1275;22430;-58
2022/06/18 00:18:47;;;;;;;6.30;5.20;;;;;;;14.83;84.64;99643.83;109227;1277;139725;-58
2022/06/18 00:21:25;;;;;;;7.50;5.00;;;;;;;14.87;84.69;99646.80;109383;1276;23269;-59
2022/06/18 00:23:52;;;;;;;7.40;4.50;;;;;;;14.91;84.64;99643.39;108981;1277;138548;-58
2022/06/18 00:26:19;;;;;;;6.60;4.90;;;;;;;14.93;84.58;99641.89;109302;1276;22457;-58
2022/06/18 00:28:45;;;;;;;7.50;4.70;;;;;;;14.95;84.51;99637.50;109198;1276;139846;-58
2022/06/18 00:31:12;;;;;;;8.60;5.10;;;;;;;14.95;84.54;99632.67;109349;1276;22463;-58
2022/06/18 00:33:40;;;;;;;5.50;4.70;;;;;;;14.96;84.52;99634.09;109255;1276;22474;-58
2022/06/18 00:36:16;;;;;;;6.00;4.70;;;;;;;14.95;84.42;99639.47;109211;1275;137876;-58
2022/06/18 00:38:44;;;;;;;6.60;4.90;;;;;;;14.94;84.34;99641.89;109173;1276;22456;-58
2022/06/18 00:41:16;;;;;;;5.50;4.70;;;;;;;14.94;84.37;99643.81;109149;1277;138270;-57
2022/06/18 00:43:46;;;;;;;10.10;5.30;;;;;;;14.94;84.42;99645.02;109376;1276;23177;-58
2022/06/18 00:46:23;;;;;;;9.40;4.80;;;;;;;14.95;84.29;99646.50;109252;1276;23110;-58
2022/06/18 00:49:02;;;;;;;6.20;5.20;;;;;;;14.95;84.30;99645.02;109049;1276;137691;-58
2022/06/18 00:51:54;;;;;;;7.70;5.20;;;;;;;14.95;84.22;99643.05;109161;1277;22351;-58
2022/06/18 00:54:24;;;;;;;6.30;4.80;;;;;;;14.95;84.18;99637.77;109197;1274;137869;-58
2022/06/18 00:56:55;;;;;;;6.80;4.90;;;;;;;14.94;84.07;99639.15;109355;1276;23340;-58
2022/06/18 00:59:37;;;;;;;6.60;5.20;;;;;;;14.93;83.96;99637.02;109080;1277;138408;-59
2022/06/18 01:02:03;;;;;;;5.80;4.80;;;;;;;14.89;83.96;99639.06;109062;1277;23364;-59
2022/06/18 01:04:32;;;;;;;5.40;4.90;;;;;;;14.85;83.97;99634.27;109176;1274;139384;-59
2022/06/18 01:07:20;;;;;;;8.70;5.20;;;;;;;14.83;84.14;99632.58;109300;1276;22416;-58
2022/06/18 01:09:47;;;;;;;7.40;5.90;;;;;;;14.82;84.19;99633.90;109190;1277;22275;-58
2022/06/18 01:12:14;;;;;;;10.20;5.60;;;;;;;14.82;84.33;99631.71;109294;1274;139117;-58
2022/06/18 01:14:41;;;;;;;6.70;5.60;;;;;;;14.81;84.37;99632.15;109140;1277;22599;-59
2022/06/18 01:17:08;;;;;;;6.30;5.60;;;;;;;14.81;84.54;99627.77;108979;1276;138343;-59
2022/06/18 01:19:40;;;;;;;6.50;5.40;;;;;;;14.82;84.53;99628.09;109183;1274;22518;-58
2022/06/18 01:22:32;;;;;;;7.70;5.80;;;;;;;14.83;84.52;99625.83;109242;1277;22584;-58
2022/06/18 01:25:06;;;;;;;6.30;4.80;;;;;;;14.81;84.44;99626.71;109256;1277;22503;-58
2022/06/18 01:27:37;;;;;;;5.40;4.90;;;;;;;14.79;84.51;99629.08;109257;1277;22684;-58
2022/06/18 01:30:10;;;;;;;9.30;5.90;;;;;;;14.78;84.42;99628.70;109266;1276;138200;-59
2022/06/18 01:32:40;;;;;;;7.40;5.30;;;;;;;14.78;84.62;99628.16;109420;1276;22472;-59
2022/06/18 01:35:09;;;;;;;7.40;6.10;;;;;;;14.78;84.38;99626.40;109049;1277;138113;-56
2022/06/18 01:37:50;;;;;;;6.60;5.20;;;;;;;14.81;84.61;99626.05;109191;1276;22488;-53
2022/06/18 01:40:41;;;;;;;8.40;5.10;;;;;;;14.83;84.61;99627.54;109282;1276;23873;-53
2022/06/18 01:43:12;;;;;;;8.30;5.70;;;;;;;14.85;84.57;99620.17;109179;1275;23694;-53
2022/06/18 01:45:39;;;;;;;7.00;5.10;;;;;;;14.85;84.45;99615.00;109079;1277;22564;-53
2022/06/18 01:48:11;;;;;;;7.00;5.60;;;;;;;14.88;84.42;99620.68;109036;1277;139577;-53
2022/06/18 01:50:42;;;;;;;9.20;5.40;;;;;;;14.88;84.46;99619.75;109340;1275;22476;-53
2022/06/18 01:53:21;;;;;;;7.40;5.40;;;;;;;14.88;84.49;99615.48;109041;1277;138796;-53
2022/06/18 01:55:52;;;;;;;7.20;5.40;;;;;;;14.88;84.42;99616.52;109198;1276;22469;-53
2022/06/18 01:58:26;;;;;;;7.80;5.60;;;;;;;14.88;84.57;99619.26;109154;1276;22436;-52
2022/06/18 02:00:55;;;;;;;8.60;5.40;;;;;;;14.86;84.57;99615.38;109165;1277;140158;-51
2022/06/18 02:03:22;;;;;;;8.10;5.50;;;;;;;14.86;84.76;99616.86;109207;1277;22405;-51
2022/06/18 02:05:49;;;;;;;5.90;5.40;;;;;;;14.85;84.83;99614.14;109163;1277;138271;-51
2022/06/18 02:08:17;;;;;;;6.20;5.60;;;;;;;14.85;84.98;99612.76;109228;1277;22438;-52
2022/06/18 02:10:50;;;;;;;6.50;5.80;;;;;;;14.85;85.18;99609.09;109076;1276;139136;-52
2022/06/18 02:13:17;;;;;;;7.80;5.80;;;;;;;14.86;85.20;99606.92;109283;1274;22533;-53
2022/06/18 02:15:45;;;;;;;6.80;5.50;;;;;;;14.86;85.35;99605.83;108297;1277;23100;-52
2022/06/18 02:18:14;;;;;;;7.70;5.50;;;;;;;14.85;85.22;99604.73;109270;1274;140208;-53
2022/06/18 02:20:45;;;;;;;6.90;5.70;;;;;;;14.87;85.29;99608.29;109149;1276;22528;-53
2022/06/18 02:23:12;;;;;;;6.90;5.60;;;;;;;14.86;85.36;99608.58;109219;1274;138180;-53
2022/06/18 02:25:42;;;;;;;7.00;5.20;;;;;;;14.87;85.43;99611.04;109491;1274;22466;-53
2022/06/18 02:28:21;;;;;;;6.60;5.20;;;;;;;14.88;85.31;99611.19;109144;1276;23444;-53
2022/06/18 02:30:48;;;;;;;8.20;5.90;;;;;;;14.89;85.21;99604.71;109191;1274;138060;-53
2022/06/18 02:33:47;;;;;;;7.30;5.60;;;;;;;14.90;85.11;99611.46;109370;1274;22532;-53
2022/06/18 02:36:21;;;;;;;5.80;5.30;;;;;;;14.91;85.02;99607.99;109036;1276;138023;-53
2022/06/18 02:38:49;;;;;;;7.30;5.50;;;;;;;14.91;84.89;99615.41;109288;1276;22410;-53
2022/06/18 02:41:15;;;;;;;7.00;5.40;;;;;;;14.91;84.85;99617.82;109077;1277;137981;-53
2022/06/18 02:43:43;;;;;;;7.00;5.80;;;;;;;14.94;84.85;99619.11;109307;1276;22461;-53
2022/06/18 02:46:09;;;;;;;6.10;5.50;;;;;;;14.95;84.78;99622.90;109341;1276;22548;-53
2022/06/18 02:48:36;;;;;;;5.80;5.20;;;;;;;14.97;84.90;99623.99;109202;1277;139222;-53
2022/06/18 02:51:03;;;;;;;6.60;5.80;;;;;;;14.98;84.87;99622.67;109359;1274;23083;-52
2022/06/18 02:53:30;;;;;;;6.60;5.90;;;;;;;15.02;84.89;99626.73;109230;1274;139992;-52
2022/06/18 02:56:00;;;;;;;6.40;5.80;;;;;;;15.02;84.73;99625.54;109444;1274;23274;-52
2022/06/18 02:58:29;;;;;;;8.10;6.00;;;;;;;15.04;84.68;99625.20;109144;1277;22265;-52
2022/06/18 03:01:01;;;;;;;8.70;6.50;;;;;;;15.05;84.55;99627.98;109344;1274;22442;-52
2022/06/18 03:03:30;;;;;;;7.90;6.90;;;;;;;15.03;84.43;99626.57;109409;1274;23268;-52
2022/06/18 03:05:59;;;;;;;10.40;7.70;;;;;;;15.02;84.43;99627.34;109165;1276;139401;-52
2022/06/18 03:08:27;;;;;;;8.40;7.40;;;;;;;15.02;84.52;99626.85;109436;1274;24043;-53
2022/06/18 03:13:41;;;;;;;8.40;7.20;;;;;;;14.93;84.51;99627.79;109247;1277;22475;-53
2022/06/18 03:16:09;;;;;;;11.70;7.90;;;;;;;14.90;84.83;99632.52;109321;1274;22454;-53
2022/06/18 03:18:36;;;;;;;9.50;8.50;;;;;;;14.85;84.90;99628.27;109347;1274;138195;-53
2022/06/18 03:21:13;;;;;;;11.50;8.20;;;;;;;14.82;85.03;99636.59;109319;1274;23393;-59
2022/06/18 03:23:40;;;;;;;9.70;8.60;;;;;;;14.77;85.23;99634.03;109108;1274;138848;-60
2022/06/18 03:26:07;;;;;;;9.90;8.90;;;;;;;14.75;85.46;99637.66;109389;1274;22485;-60
2022/06/18 03:28:34;;;;;;;11.50;9.10;;;;;;;14.73;85.61;99637.72;109157;1274;139594;-59
2022/06/18 03:31:01;;;;;;;15.90;9.20;;;;;;;14.71;85.79;99637.68;109247;1277;22435;-59
2022/06/18 03:33:29;;;;;;;10.80;9.60;;;;;;;14.69;85.87;99639.35;109096;1277;23330;-59
2022/06/18 03:35:57;;;;;;;10.90;9.80;;;;;;;14.62;86.01;99639.38;109131;1274;138439;-59
2022/06/18 03:38:24;;;;;;;11.80;10.00;;;;;;;14.58;86.38;99634.89;109188;1274;23201;-59
2022/06/18 03:40:51;;;;;;;12.10;10.10;;;;;;;14.57;86.67;99637.36;109039;1274;139527;-59
2022/06/18 03:43:19;;;;;;;15.00;11.20;;;;;;;14.59;86.78;99634.50;109350;1274;22644;-58
2022/06/18 03:45:49;;;;;;;12.30;10.50;;;;;;;14.59;86.89;99640.48;109305;1274;22420;-53
2022/06/18 03:48:21;;;;;;;14.80;11.10;;;;;;;14.57;86.97;99635.77;109237;1274;138419;-53
2022/06/18 03:50:49;;;;;;;11.90;10.70;;;;;;;14.55;86.98;99637.51;109083;1276;22440;-53
2022/06/18 03:53:16;;;;;;;13.10;11.70;;;;;;;14.52;87.14;99637.35;109254;1274;138980;-53
2022/06/18 03:55:48;;;;;;;12.80;11.00;;;;;;;14.49;87.32;99632.75;109274;1275;23703;-53
2022/06/18 03:58:15;;;;;;;12.70;11.30;;;;;;;14.50;87.54;99633.50;109200;1277;22249;-53
2022/06/18 04:00:42;;;;;;;12.00;10.80;;;;;;;14.56;87.64;99637.16;109180;1274;140347;-53
2022/06/18 04:03:09;;;;;;;14.00;10.70;;;;;;;14.58;87.80;99635.66;109288;1274;23332;-53
2022/06/18 04:05:38;;;;;;;12.60;11.20;;;;;;;14.63;87.66;99635.86;109253;1274;139295;-53
2022/06/18 04:08:04;;;;;;;14.60;12.00;;;;;;;14.66;87.69;99635.58;109118;1276;22471;-53
2022/06/18 04:10:58;;;;;;;13.70;12.30;;;;;;;14.69;87.50;99635.73;109156;1276;139469;-54
2022/06/18 04:13:25;;;;;;;14.10;12.70;;;;;;;14.71;87.51;99634.99;109246;1274;22456;-54
2022/06/18 04:16:06;;;;;;;19.40;12.80;;;;;;;14.72;87.09;99636.41;107609;1275;25503;-54
2022/06/18 04:18:35;;;;;;;14.40;12.90;;;;;;;14.71;86.81;99640.16;109240;1274;138570;-54
2022/06/18 04:21:05;;;;;;;15.70;12.70;;;;;;;14.71;86.68;99641.70;109287;1274;22401;-54
2022/06/18 04:23:34;;;;;;;14.90;13.30;;;;;;;14.72;86.63;99644.52;109151;1276;140326;-54
2022/06/18 04:26:02;;;;;;;15.70;13.50;;;;;;;14.73;86.64;99643.15;109323;1274;22715;-54
2022/06/18 04:28:29;;;;;;;15.10;12.80;;;;;;;14.76;86.75;99644.07;109202;1275;140331;-57
2022/06/18 04:31:03;;;;;;;16.40;12.80;;;;;;;14.81;86.77;99646.80;109322;1274;23579;-54
2022/06/18 04:33:35;;;;;;;14.20;12.50;;;;;;;14.87;86.61;99651.25;109362;1274;22445;-54
2022/06/18 04:36:34;;;;;;;15.30;13.00;;;;;;;14.91;86.24;99646.02;109340;1274;139089;-54
2022/06/18 04:39:05;;;;;;;17.60;12.40;;;;;;;14.91;85.85;99646.95;109191;1277;22433;-53
2022/06/18 04:41:57;;;;;;;15.90;12.40;;;;;;;14.91;85.76;99644.38;109211;1274;138885;-54
2022/06/18 04:44:26;;;;;;;16.00;13.10;;;;;;;14.91;85.67;99650.68;109262;1277;22634;-53
2022/06/18 04:47:00;;;;;;;14.40;12.80;;;;;;;14.92;85.31;99652.33;109189;1276;139643;-54
2022/06/18 04:49:28;;;;;;;14.40;12.90;;;;;;;14.90;85.10;99656.28;109294;1274;22566;-53
2022/06/18 04:51:55;;;;;;;16.10;13.70;;;;;;;14.94;85.22;99653.91;109398;1274;22439;-53
2022/06/18 04:54:38;;;;;;;20.50;14.60;;;;;;;14.99;85.23;99652.35;109187;1274;140434;-54
2022/06/18 04:57:05;;;;;;;15.60;13.30;;;;;;;15.03;85.15;99657.80;109331;1274;23343;-54
2022/06/18 04:59:32;;;;;;;17.30;14.10;;;;;;;15.07;85.02;99659.92;109193;1276;139210;-53
2022/06/18 05:02:06;;;;;;;15.50;13.40;;;;;;;15.12;84.99;99658.25;109270;1274;22589;-53
2022/06/18 05:05:17;;;;;;;15.20;13.10;;;;;;;15.25;85.27;99660.36;108997;1274;140170;-54
2022/06/18 05:08:04;;;;;;;17.00;13.50;;;;;;;15.37;84.99;99666.14;108991;1276;22404;-54
2022/06/18 05:10:49;;;;;;;18.20;12.90;;;;;;;15.49;84.72;99672.63;109257;1274;139691;-54
2022/06/18 05:13:37;;;;;;;16.60;12.80;;;;;;;15.62;84.03;99674.48;109175;1277;22521;-54
2022/06/18 05:16:24;;;;;;;17.30;13.10;;;;;;;15.76;83.48;99678.16;109217;1274;22250;-55
2022/06/18 05:18:51;;;;;;;15.40;12.50;;;;;;;15.88;83.33;99685.52;107599;1275;139957;-54
2022/06/18 05:21:19;;;;;;;14.20;12.70;;;;;;;16.05;83.05;99687.95;105113;1275;22639;-54
2022/06/18 05:23:47;;;;;;;16.10;13.80;;;;;;;16.17;82.14;99691.34;104905;1277;139422;-54
2022/06/18 05:26:18;;;;;;;13.50;11.80;;;;;;;16.24;81.06;99689.77;105101;1277;23257;-53
2022/06/18 05:28:46;;;;;;;14.00;12.50;;;;;;;16.22;80.20;99686.16;109217;1274;139858;-54
2022/06/18 05:31:13;;;;;;;15.10;12.60;;;;;;;16.22;80.31;99690.41;109363;1274;22448;-54
2022/06/18 05:33:40;;;;;;;15.40;11.80;;;;;;;16.23;79.79;99693.09;109345;1277;23528;-57
2022/06/18 05:36:09;;;;;;;17.70;13.20;;;;;;;16.19;79.89;99696.04;109224;1274;138415;-54
2022/06/18 05:38:36;;;;;;;15.40;12.50;;;;;;;16.17;80.24;99692.92;109299;1274;24403;-54
2022/06/18 05:41:03;;;;;;;13.70;11.80;;;;;;;16.15;80.16;99689.13;109237;1274;139242;-53
2022/06/18 05:43:30;;;;;;;18.30;12.60;;;;;;;16.14;80.16;99688.02;109246;1276;23155;-53
2022/06/18 05:45:57;;;;;;;14.60;11.50;;;;;;;16.28;80.39;99697.23;109252;1277;22460;-53
2022/06/18 05:48:26;;;;;;;10.10;9.10;;;;;;;16.45;79.73;99699.49;109179;1277;139506;-53
2022/06/18 05:50:53;;;;;;;12.60;10.70;;;;;;;16.56;78.58;99693.51;109239;1275;22758;-53
2022/06/18 05:53:20;;;;;;;10.60;9.60;;;;;;;16.63;78.48;99694.91;109174;1276;138637;-54
2022/06/18 05:55:56;;;;;;;12.50;10.00;;;;;;;16.76;78.47;99696.70;109350;1275;22469;-54
2022/06/18 05:58:39;;;;;;;10.40;9.40;;;;;;;16.91;77.63;99699.73;109084;1276;139121;-54
2022/06/18 06:01:17;;;;;;;12.80;10.10;;;;;;;17.00;77.10;99696.65;109240;1276;22496;-53
2022/06/18 06:03:45;;;;;;;12.40;9.60;;;;;;;17.12;77.00;99694.34;109236;1274;23296;-54
2022/06/18 06:06:12;;;;;;;12.20;8.60;;;;;;;17.21;76.24;99694.03;109254;1273;139729;-54
2022/06/18 06:08:41;;;;;;;12.30;9.50;;;;;;;17.28;76.03;99692.40;109139;1274;22474;-53
2022/06/18 06:13:56;;;;;;;12.50;9.80;;;;;;;17.53;75.84;99694.27;109283;1274;22458;-53
2022/06/18 06:16:23;;;;;;;10.40;8.80;;;;;;;17.68;75.26;99696.88;109150;1277;22411;-53
2022/06/18 06:18:50;;;;;;;9.60;7.30;;;;;;;17.79;73.86;99700.39;109000;1276;138806;-53
2022/06/18 06:21:17;;;;;;;11.60;7.90;;;;;;;17.83;72.74;99701.15;109160;1274;22442;-53
2022/06/18 06:23:44;;;;;;;10.90;7.00;;;;;;;17.83;72.74;99706.77;109194;1277;138490;-53
2022/06/18 06:26:23;;;;;;;9.70;7.20;;;;;;;17.85;72.85;99698.48;109243;1276;22714;-53
2022/06/18 06:28:50;;;;;;;28.40;8.60;;;;;;;17.93;72.63;99695.67;109224;1276;138409;-54
2022/06/18 06:31:18;;;;;;;10.30;9.20;;;;;;;18.04;72.71;99699.35;109366;1274;22619;-53
2022/06/18 06:33:45;;;;;;;12.00;7.60;;;;;;;18.15;72.93;99699.11;109348;1276;22491;-53
2022/06/18 06:36:12;;;;;;;10.30;8.30;;;;;;;18.23;72.86;99696.64;109254;1276;139082;-53
2022/06/18 06:38:39;;;;;;;10.00;6.60;;;;;;;18.34;72.97;99696.48;109381;1276;22256;-53
2022/06/18 06:41:10;;;;;;;8.20;6.80;;;;;;;18.46;72.30;99698.14;109276;1274;139386;-54
2022/06/18 06:43:37;;;;;;;7.60;6.80;;;;;;;18.54;71.21;99702.00;109077;1277;22543;-53
2022/06/18 06:46:04;;;;;;;7.60;6.60;;;;;;;18.55;70.45;99701.26;109428;1274;22557;-53
2022/06/18 06:48:31;;;;;;;8.20;6.40;;;;;;;18.54;69.78;99705.91;109094;1276;138550;-53
2022/06/18 06:50:58;;;;;;;6.90;6.10;;;;;;;18.52;70.02;99705.23;109370;1274;22428;-53
2022/06/18 06:53:25;;;;;;;8.50;7.10;;;;;;;18.53;69.99;99706.98;109177;1274;139886;-53
2022/06/18 06:58:37;;;;;;;12.20;9.30;;;;;;;18.43;70.37;99707.41;109210;1277;138760;-53
2022/06/18 07:01:04;;;;;;;9.30;8.40;;;;;;;18.37;71.00;99712.20;109399;1274;22533;-53
2022/06/18 07:03:32;;;;;;;7.90;7.10;;;;;;;18.31;71.27;99712.30;109474;1274;23242;-53
2022/06/18 07:06:01;;;;;;;8.10;7.30;;;;;;;18.29;71.11;99710.36;107740;1276;140271;-53
2022/06/18 07:08:28;;;;;;;12.40;7.60;;;;;;;18.29;70.88;99712.70;105033;1277;22589;-52
2022/06/18 07:10:54;;;;;;;11.00;7.70;;;;;;;18.25;70.21;99715.52;104894;1277;139194;-51
2022/06/18 07:13:28;;;;;;;9.60;6.80;;;;;;;18.15;70.39;99714.88;109301;1274;22473;-52
2022/06/18 07:15:55;;;;;;;7.70;6.90;;;;;;;18.05;70.75;99717.35;109274;1276;22535;-53
2022/06/18 07:18:24;;;;;;;10.90;7.60;;;;;;;17.99;70.90;99715.77;109217;1274;138707;-53
2022/06/18 07:20:50;;;;;;;11.10;8.10;;;;;;;17.95;71.24;99717.75;109296;1275;22475;-53
2022/06/18 07:23:17;;;;;;;9.80;8.50;;;;;;;17.92;71.51;99722.60;109280;1274;138320;-54
2022/06/18 07:25:44;;;;;;;9.20;6.90;;;;;;;17.87;71.80;99722.64;109326;1276;23651;-53
2022/06/18 07:28:11;;;;;;;12.90;7.20;;;;;;;17.83;71.99;99731.09;109356;1274;23423;-54
2022/06/18 07:30:38;;;;;;;7.50;6.50;;;;;;;17.80;71.83;99730.63;109264;1274;139149;-58
2022/06/18 07:33:05;;;;;;;8.80;6.60;;;;;;;17.76;71.97;99731.58;109282;1274;22544;-59
2022/06/18 07:35:34;;;;;;;9.70;7.40;;;;;;;17.77;72.40;99735.14;109164;1276;139533;-53
2022/06/18 07:38:02;;;;;;;10.30;7.90;;;;;;;17.82;72.22;99731.83;109398;1274;22988;-53
2022/06/18 07:40:37;;;;;;;11.40;7.90;;;;;;;17.85;72.21;99727.73;109228;1276;138421;-54
2022/06/18 07:43:05;;;;;;;8.20;6.50;;;;;;;17.89;72.35;99730.65;109272;1274;22479;-54
2022/06/18 07:45:31;;;;;;;10.10;6.60;;;;;;;17.94;71.83;99727.58;109202;1275;23469;-53
2022/06/18 07:47:58;;;;;;;8.70;7.00;;;;;;;18.00;71.65;99728.77;109122;1276;138642;-54
2022/06/18 07:50:25;;;;;;;8.40;6.70;;;;;;;18.05;71.35;99731.42;109326;1276;22461;-54
2022/06/18 07:52:52;;;;;;;7.80;6.60;;;;;;;18.07;70.58;99732.33;109314;1274;139250;-54
2022/06/18 07:55:24;;;;;;;10.40;7.10;;;;;;;18.07;70.49;99727.97;109346;1276;22436;-53
2022/06/18 07:57:50;;;;;;;10.10;6.40;;;;;;;18.07;70.45;99724.22;109264;1274;22484;-58
2022/06/18 08:00:19;;;;;;;9.20;6.20;;;;;;;18.11;70.55;99723.83;109209;1276;138188;-58
2022/06/18 08:02:46;;;;;;;6.60;5.60;;;;;;;18.18;70.10;99727.89;109255;1274;23240;-58
2022/06/18 08:05:19;;;;;;;8.20;5.80;;;;;;;18.25;69.16;99726.39;109358;1274;138863;-58
2022/06/18 08:07:45;;;;;;;6.70;5.90;;;;;;;18.32;69.64;99723.71;109280;1274;22516;-58
2022/06/18 08:10:32;;;;;;;9.20;6.90;;;;;;;18.42;70.05;99725.40;109218;1277;139892;-58
2022/06/18 08:12:59;;;;;;;8.80;6.50;;;;;;;18.55;69.58;99728.98;109325;1274;22456;-58
2022/06/18 08:15:26;;;;;;;5.50;4.80;;;;;;;18.61;68.53;99723.41;109426;1274;22518;-53
2022/06/18 08:17:53;;;;;;;6.90;4.80;;;;;;;18.67;68.21;99723.56;109317;1274;138087;-59
2022/06/18 08:20:41;;;;;;;5.70;4.80;;;;;;;18.77;66.93;99725.37;109495;1274;23271;-58
2022/06/18 08:23:08;;;;;;;8.20;5.30;;;;;;;18.84;66.74;99728.48;109178;1277;138157;-59
2022/06/18 08:25:35;;;;;;;7.00;5.00;;;;;;;18.94;66.34;99731.18;109370;1276;23296;-58
2022/06/18 08:28:03;;;;;;;6.80;4.20;;;;;;;19.02;65.58;99728.26;109448;1274;23176;-58
2022/06/18 08:30:30;;;;;;;6.10;3.90;;;;;;;19.10;64.76;99729.30;109158;1274;137725;-58
2022/06/18 08:32:57;;;;;;;5.10;3.70;;;;;;;19.15;64.18;99725.17;109315;1276;22505;-58
2022/06/18 08:35:24;;;;;;;3.90;3.50;;;;;;;19.21;63.62;99729.28;109263;1275;138502;-58
2022/06/18 08:37:51;;;;;;;6.00;3.80;;;;;;;19.30;62.92;99732.95;109253;1277;23169;-58
2022/06/18 08:40:45;;;;;;;6.20;3.70;;;;;;;19.35;62.23;99718.17;109316;1274;22460;-59
2022/06/18 08:43:21;;;;;;;4.60;3.50;;;;;;;19.43;62.28;99717.58;109310;1277;22453;-58
2022/06/18 08:45:57;;;;;;;6.80;3.70;;;;;;;19.50;62.18;99715.03;109461;1274;22459;-53
2022/06/18 08:48:49;;;;;;;3.60;3.30;;;;;;;19.58;61.36;99710.12;109149;1277;137531;-53
2022/06/18 08:51:37;;;;;;;8.90;4.30;;;;;;;19.65;61.45;99714.80;109111;1275;22567;-53
2022/06/18 08:54:25;;;;;;;7.70;3.30;;;;;;;19.70;61.22;99707.83;109204;1274;138471;-59
2022/06/18 08:57:13;;;;;;;5.70;3.50;;;;;;;19.77;60.23;99707.05;109483;1274;22509;-58
2022/06/18 09:00:04;;;;;;;6.10;3.20;;;;;;;19.85;60.54;99709.45;109303;1274;137655;-59
2022/06/18 09:03:05;;;;;;;5.40;3.40;;;;;;;19.94;59.72;99709.76;109160;1277;23189;-58
2022/06/18 09:06:11;;;;;;;5.60;3.00;;;;;;;20.05;58.70;99706.19;109295;1274;137539;-58
2022/06/18 09:08:41;;;;;;;7.70;2.90;;;;;;;20.14;58.01;99712.04;109298;1274;22472;-57
2022/06/18 09:11:15;;;;;;;15.60;4.20;;;;;;;20.20;57.36;99713.70;109380;1274;139524;-57
2022/06/18 09:13:58;;;;;;;19.00;3.80;;;;;;;20.23;57.00;99713.70;109081;1276;22332;-57
2022/06/18 09:16:31;;;;;;;5.50;2.80;;;;;;;20.26;57.05;99714.09;107076;1276;22550;-52
2022/06/18 09:18:58;;;;;;;3.70;2.60;;;;;;;20.31;56.63;99716.52;105044;1277;22649;-53
2022/06/18 09:21:35;;;;;;;6.10;2.90;;;;;;;20.34;56.03;99717.09;105033;1274;22902;-53
2022/06/18 09:24:04;;;;;;;20.80;4.00;;;;;;;20.36;56.25;99717.27;104916;1277;138551;-53
2022/06/18 09:26:42;;;;;;;4.60;2.30;;;;;;;20.41;55.67;99717.31;109355;1276;22384;-53
2022/06/18 09:29:23;;;;;;;4.70;2.20;;;;;;;20.49;54.76;99716.86;109386;1274;137812;-53
2022/06/18 09:32:26;;;;;;;10.70;2.10;;;;;;;20.58;54.19;99714.73;109310;1274;23054;-53
2022/06/18 09:35:00;;;;;;;6.60;2.40;;;;;;;20.66;53.39;99710.29;108542;1280;138746;-59
2022/06/18 09:37:33;;;;;;;5.80;2.60;;;;;;;20.68;53.22;99714.41;108658;1281;22267;-59
2022/06/18 09:42:07;;;;;;;3.20;2.00;;;;;;;20.65;52.95;99711.60;101794;1309;545411;-58
2022/06/18 09:44:57;;;;;;;3.80;1.60;;;;;;;20.62;52.81;99710.66;107991;1289;22604;-57
2022/06/18 09:47:41;;;;;;;5.40;2.40;;;;;;;20.64;52.43;99712.56;107890;1289;137628;-58
2022/06/18 09:50:33;;;;;;;4.00;2.80;;;;;;;20.62;51.90;99713.02;108054;1288;22496;-58
2022/06/18 09:53:21;;;;;;;10.00;2.30;;;;;;;20.53;52.48;99714.11;108065;1287;138014;-57
2022/06/18 09:56:01;;;;;;;3.80;3.10;;;;;;;20.43;55.38;99720.27;106891;1287;198418;-53
2022/06/18 09:58:55;;;;;;;9.00;3.80;;;;;;;20.32;57.91;99711.63;108368;1286;22430;-53
2022/06/18 10:01:26;;;;;;;3.60;3.20;;;;;;;20.17;59.43;99712.92;108610;1283;22407;-53
2022/06/18 10:06:52;;;;;;;;;;;;;;;20.01;60.09;99703.30;108355;1284;136653;-53
2022/06/18 10:09:43;;;;;;;5.60;3.30;;;;;;;20.00;60.51;99706.98;108356;1284;22528;-53
2022/06/18 10:12:28;;;;;;;4.50;3.20;;;;;;;20.00;60.33;99705.31;108521;1283;137358;-53
2022/06/18 10:14:56;;;;;;;3.90;3.00;;;;;;;20.03;60.36;99705.41;108422;1283;22595;-53
2022/06/18 10:18:04;;;;;;;5.30;3.70;;;;;;;20.09;60.84;99703.64;108522;1283;137299;-52
2022/06/18 10:21:12;;;;;;;3.00;2.70;;;;;;;20.21;60.29;99706.61;107963;1289;22478;-53
2022/06/18 10:24:03;;;;;;;4.10;2.00;;;;;;;20.30;56.76;99702.10;107412;1291;137606;-58
2022/06/18 10:26:58;;;;;;;4.60;2.30;;;;;;;20.39;53.56;99701.74;104918;1293;24052;-54
2022/06/18 10:29:34;;;;;;;2.70;1.90;;;;;;;20.47;52.70;99701.11;103019;1292;137007;-52
2022/06/18 10:32:23;;;;;;;8.40;6.50;;;;;;;20.49;52.49;99695.83;103429;1294;25339;-52
2022/06/18 10:35:10;;;;;;;4.00;3.00;;;;;;;20.50;53.03;99698.07;102996;1294;138967;-52
2022/06/18 10:37:45;;;;;;;5.30;2.40;;;;;;;20.50;53.19;99703.94;103077;1293;24035;-52
2022/06/18 10:41:02;;;;;;;3.70;2.70;;;;;;;20.49;53.97;99707.12;103041;1294;23769;-53
2022/06/18 10:43:34;;;;;;;4.10;3.00;;;;;;;20.49;55.06;99708.30;107248;1293;22523;-54
2022/06/18 10:46:23;;;;;;;3.10;2.80;;;;;;;20.46;55.46;99714.42;107275;1293;22508;-54
2022/06/18 10:48:55;;;;;;;3.60;3.10;;;;;;;20.42;55.58;99710.52;107232;1294;138187;-54
2022/06/18 10:51:24;;;;;;;3.20;2.90;;;;;;;20.38;55.62;99710.79;107228;1295;23176;-52
2022/06/18 10:53:52;;;;;;;3.80;3.10;;;;;;;20.35;55.66;99708.91;107172;1294;137164;-53
2022/06/18 10:56:23;;;;;;;4.00;2.80;;;;;;;20.32;55.94;99705.80;107151;1295;22450;-53
2022/06/18 10:58:52;;;;;;;4.00;2.30;;;;;;;20.30;55.96;99707.52;107845;1287;137281;-51
2022/06/18 11:01:34;;;;;;;4.00;2.60;;;;;;;20.28;55.38;99702.38;108262;1285;23354;-51
2022/06/18 11:04:17;;;;;;;5.00;2.70;;;;;;;20.25;55.65;99702.00;108238;1285;22451;-51
2022/06/18 11:06:45;;;;;;;11.20;8.70;;;;;;;20.26;55.88;99700.80;107970;1285;137447;-56
2022/06/18 11:09:11;;;;;;;5.90;3.90;;;;;;;20.27;55.90;99701.11;108102;1287;22427;-57
2022/06/18 11:11:38;;;;;;;3.20;2.60;;;;;;;20.29;55.49;99698.48;107973;1285;137137;-57
2022/06/18 11:14:15;;;;;;;3.40;2.50;;;;;;;20.33;55.71;99700.55;108160;1286;22307;-56
2022/06/18 11:16:49;;;;;;;4.70;3.10;;;;;;;20.37;55.55;99696.48;108149;1285;137819;-57
2022/06/18 11:19:24;;;;;;;6.20;2.20;;;;;;;20.42;54.83;99699.02;108294;1285;23384;-57
2022/06/18 11:21:51;;;;;;;3.60;2.00;;;;;;;20.47;54.00;99699.29;108274;1285;22442;-59
2022/06/18 11:24:28;;;;;;;2.60;1.80;;;;;;;20.55;53.73;99697.84;107977;1287;137049;-57
2022/06/18 11:26:57;;;;;;;3.50;2.00;;;;;;;20.67;52.08;99698.22;105189;1285;22624;-52
2022/06/18 11:29:45;;;;;;;2.90;2.10;;;;;;;20.78;52.57;99702.48;108125;1284;137231;-59
2022/06/18 11:32:38;;;;;;;3.50;2.70;;;;;;;20.90;53.53;99704.31;108245;1286;22433;-58
2022/06/18 11:35:08;;;;;;;6.60;2.30;;;;;;;21.01;53.55;99706.63;108120;1285;137368;-58
2022/06/18 11:37:35;;;;;;;3.90;2.60;;;;;;;21.08;53.25;99703.91;108249;1285;22494;-58
2022/06/18 11:40:09;;;;;;;3.70;2.40;;;;;;;21.11;52.96;99705.27;108267;1284;22336;-58
2022/06/18 11:42:44;;;;;;;5.10;2.40;;;;;;;21.12;52.81;99701.98;108321;1283;139510;-58
2022/06/18 11:45:23;;;;;;;3.10;2.40;;;;;;;21.13;53.04;99704.66;109261;1276;22485;-57
2022/06/18 11:48:14;;;;;;;3.70;2.20;;;;;;;21.14;53.21;99701.63;109037;1277;138752;-57
2022/06/18 11:51:00;;;;;;;6.20;2.40;;;;;;;21.16;52.76;99694.49;109401;1274;22456;-58
2022/06/18 11:53:57;;;;;;;5.40;2.30;;;;;;;21.17;53.17;99693.68;109177;1276;136964;-58
2022/06/18 11:56:51;;;;;;;14.00;2.80;;;;;;;21.21;53.19;99694.91;109217;1276;22552;-57
2022/06/18 11:59:33;;;;;;;13.10;2.40;;;;;;;21.25;51.99;99695.27;109152;1276;138917;-58
2022/06/18 12:02:12;;;;;;;12.50;2.40;;;;;;;21.27;51.93;99696.39;109238;1276;22408;-58